Airfield :







YOU CAN JOIN US ON...

 
LOGIN :

Register | Disclaimer

   EN    FR    IT 

 









Legend :    VFR   Marginal VFR   IFR   Intensive IFR   Very Intensive IFR
Visi :
Ceiling :
>= 8 km
>= 3000ft
5 to 8 km
1000 to 3000 ft
1500m to 5 km
500 to 1000 ft
800 to 1500m
200 to 500 ft
< 800m
< 200 ft
Symbols :   Thunderstorms  Fog  Heavy snow  Heavy precipitations  Wind > 20 kt







- Airport Elevation : 6 ft
- IATA code : AEY


BIAR - Akureyri

CURRENT METAR :
  • 230600Z VRB02KT 9999 SCT025 BKN031 02/M03 Q1005

EXPIRED METARs :
  • 230500Z 27003KT 190V320 9999 SCT026 BKN034 03/M02 Q1005
  • 230400Z VRB01KT 9999 FEW023 BKN040 02/M02 Q1006

TAF TAF BIAR
Valid from the 23 at 06:00 until the 24 at 06:00 UTC


230502Z 2306/2406 34008KT 9999 -SNRA SCT025 BKN030 OVC043 TX07/2321Z TN01/2306Z
BECMG 2307/2309 3000 SNRA BKN010 OVC015
BECMG 2311/2313 9000 -RADZ BKN015 OVC025
BECMG 2317/2320 16013KT 9999 NSW SCT030 BKN050
No reported NOTAMs for that airfield.



MET'MAP, your aeronautical weather chart ! - Copyright ORBIFLY December 2007 - Disclaimer

ORBIFLY MET'MAP TEAM :

Programming & Development : Alexandra Zaïnal
Concept & Development : Baudouin d'Aumeries
Co-Development & Prog : Marc-Olivier Méhu
Technical & hardware support : Manuel Goepfert

Contact : metmap@orbifly.com




SOURCES & CREDITS :

   NOAA